Terminal Aerodrome Forecast
Issued by NWS

Home | Current Version | Previous Version | Text Only | Print | Product List | Glossary On
Versions: 1 2 3 4 5 6 7 8 9 10 11 12 13 14 15 16 17 18
000
FTUS46 KPQR 172342
TAFONP
TAF
KONP 172342Z 1800/1824 19007KT 1SM -DZ BR BKN004 OVC012
     FM180200 18006KT P6SM SCT008 BKN015
     FM180500 VRB03KT 1 1/2SM BR OVC003
     FM180700 15004KT 1/2SM FG OVC003
     FM181300 19015G22KT 2SM -DZ BR OVC003
     FM181700 20018G26KT 4SM BR SCT007 OVC015=

USA.gov is the U.S. government's official web portal to all federal, state and local government web resources and services.